Time;durP1;ratioP1;P1;durP2;ratioP2;P2;SDS_P1;SDS_P2;PMS_P1;PMS_P2;Temp;Humidity;BMP_temperature;BMP_pressure;BME280_temperature;BME280_humidity;BME280_pressure;Samples;Min_cycle;Max_cycle;Signal;HPM_P1;HPM_P2
2024/01/22 00:01:34;;;;;;;13.88;5.25;;;7.50;99.90;;;;;;5140336;27;20045;-64
2024/01/22 00:04:00;;;;;;;11.45;5.55;;;7.50;99.90;;;;;;5142244;27;20455;-63
2024/01/22 00:06:26;;;;;;;9.48;5.05;;;7.50;99.90;;;;;;5144006;27;20517;-63
2024/01/22 00:08:52;;;;;;;9.60;5.10;;;7.50;99.90;;;;;;5141322;27;20403;-63
2024/01/22 00:11:17;;;;;;;9.68;4.90;;;7.50;99.90;;;;;;5145235;27;20031;-63
2024/01/22 00:13:43;;;;;;;10.52;4.88;;;7.60;99.90;;;;;;5139922;27;20050;-63
2024/01/22 00:16:09;;;;;;;6.45;4.20;;;7.60;99.90;;;;;;5139677;27;20050;-63
2024/01/22 00:18:36;;;;;;;9.15;5.10;;;7.70;99.90;;;;;;5145326;27;20058;-62
2024/01/22 00:21:02;;;;;;;11.43;4.88;;;7.70;99.90;;;;;;5138655;27;20114;-63
2024/01/22 00:23:27;;;;;;;8.82;4.28;;;7.70;99.90;;;;;;5140052;27;20038;-62
2024/01/22 00:25:53;;;;;;;9.52;4.93;;;7.80;99.90;;;;;;5141076;27;20062;-62
2024/01/22 00:28:19;;;;;;;11.15;5.20;;;7.80;99.90;;;;;;5142371;27;20169;-63
2024/01/22 00:30:44;;;;;;;10.38;4.35;;;7.80;99.90;;;;;;5136918;27;20039;-62
2024/01/22 00:33:10;;;;;;;7.70;4.53;;;7.80;99.90;;;;;;5120292;27;20038;-62
2024/01/22 00:35:36;;;;;;;9.38;4.80;;;7.90;99.90;;;;;;5141621;27;20499;-62
2024/01/22 00:38:02;;;;;;;7.85;4.38;;;7.80;99.90;;;;;;5143284;27;20061;-62
2024/01/22 00:40:27;;;;;;;9.23;4.70;;;7.90;99.90;;;;;;5144544;27;20030;-63
2024/01/22 00:42:53;;;;;;;9.25;4.38;;;7.90;99.90;;;;;;5144645;27;20045;-63
2024/01/22 00:45:19;;;;;;;8.55;4.40;;;7.90;99.90;;;;;;5119820;27;20596;-61
2024/01/22 00:47:45;;;;;;;9.23;4.53;;;8.00;99.90;;;;;;5138536;27;20115;-62
2024/01/22 00:50:11;;;;;;;9.05;4.13;;;7.90;99.90;;;;;;5145667;27;20046;-64
2024/01/22 00:52:36;;;;;;;8.63;4.57;;;8.00;99.90;;;;;;5143692;27;20703;-62
2024/01/22 00:55:03;;;;;;;8.15;4.75;;;8.00;99.90;;;;;;5136809;27;20137;-62
2024/01/22 00:57:28;;;;;;;6.85;4.50;;;8.00;99.90;;;;;;5145989;27;20061;-62
2024/01/22 00:59:54;;;;;;;11.27;5.60;;;8.00;99.90;;;;;;5144734;27;20486;-62
2024/01/22 01:02:20;;;;;;;9.13;4.30;;;8.00;99.90;;;;;;5146651;27;20133;-62
2024/01/22 01:04:45;;;;;;;11.18;4.63;;;8.00;99.90;;;;;;5121265;27;20062;-62
2024/01/22 01:07:12;;;;;;;6.18;4.30;;;8.00;99.90;;;;;;5145696;27;20037;-62
2024/01/22 01:09:38;;;;;;;7.13;4.78;;;8.00;99.90;;;;;;5140212;27;20127;-62
2024/01/22 01:12:04;;;;;;;7.53;4.28;;;8.10;99.90;;;;;;5141408;27;20039;-61
2024/01/22 01:14:30;;;;;;;12.40;4.45;;;8.10;99.90;;;;;;5123688;27;20068;-62
2024/01/22 01:16:56;;;;;;;14.07;4.88;;;8.10;99.90;;;;;;5138558;27;20038;-62
2024/01/22 01:19:21;;;;;;;10.00;4.43;;;8.10;99.90;;;;;;5139779;27;20047;-62
2024/01/22 01:21:47;;;;;;;5.90;4.10;;;8.20;99.90;;;;;;5138038;27;20045;-62
2024/01/22 01:24:13;;;;;;;7.75;3.85;;;8.20;99.90;;;;;;5134337;27;20085;-62
2024/01/22 01:26:43;;;;;;;6.82;4.50;;;8.20;99.90;;;;;;5134525;27;20046;-61
2024/01/22 01:29:09;;;;;;;9.80;4.47;;;8.30;99.90;;;;;;5135936;27;20039;-62
2024/01/22 01:31:35;;;;;;;8.32;4.97;;;8.20;99.90;;;;;;5141852;27;20043;-62
2024/01/22 01:34:01;;;;;;;11.38;4.10;;;8.30;99.90;;;;;;5143971;27;20117;-62
2024/01/22 01:36:27;;;;;;;8.60;4.38;;;8.40;99.90;;;;;;5143728;27;20072;-62
2024/01/22 01:38:52;;;;;;;9.95;4.32;;;8.40;99.90;;;;;;5115399;27;20087;-61
2024/01/22 01:41:18;;;;;;;5.07;3.70;;;8.50;99.90;;;;;;5144073;27;20034;-61
2024/01/22 01:43:44;;;;;;;7.82;4.30;;;8.60;99.90;;;;;;5142395;27;20049;-61
2024/01/22 01:46:09;;;;;;;8.60;4.32;;;8.70;99.90;;;;;;5142424;27;20600;-63
2024/01/22 01:48:36;;;;;;;8.60;4.22;;;8.70;99.90;;;;;;5115671;27;20043;-62
2024/01/22 01:51:02;;;;;;;10.27;4.20;;;8.90;99.90;;;;;;5133196;27;20094;-61
2024/01/22 01:53:29;;;;;;;5.85;3.67;;;8.90;99.90;;;;;;5136256;27;20117;-61
2024/01/22 01:55:55;;;;;;;7.93;4.30;;;9.10;99.90;;;;;;5138983;27;20046;-61
2024/01/22 01:58:22;;;;;;;7.65;4.63;;;9.20;99.90;;;;;;5143058;27;20039;-62
2024/01/22 02:00:49;;;;;;;9.07;4.40;;;9.20;99.90;;;;;;5138154;27;20099;-61
2024/01/22 02:03:15;;;;;;;7.18;4.07;;;9.10;99.90;;;;;;5141206;27;20502;-61
2024/01/22 02:05:41;;;;;;;11.48;4.13;;;9.20;99.90;;;;;;5143826;27;20034;-61
2024/01/22 02:08:07;;;;;;;8.32;4.05;;;9.30;99.90;;;;;;5139421;27;20509;-60
2024/01/22 02:10:33;;;;;;;5.88;3.90;;;9.20;99.90;;;;;;5141052;27;20034;-60
2024/01/22 02:13:01;;;;;;;11.65;3.95;;;9.20;99.90;;;;;;5139223;27;20158;-61
2024/01/22 02:15:26;;;;;;;8.50;3.70;;;9.20;99.90;;;;;;5129281;27;20073;-60
2024/01/22 02:17:52;;;;;;;7.28;4.00;;;9.10;99.90;;;;;;5135516;27;20307;-61
2024/01/22 02:20:18;;;;;;;7.68;4.30;;;9.20;99.90;;;;;;5144372;27;20917;-60
2024/01/22 02:22:44;;;;;;;6.47;3.97;;;9.20;99.90;;;;;;5142250;27;20035;-60
2024/01/22 02:25:09;;;;;;;6.88;3.60;;;9.20;99.90;;;;;;5141928;27;20030;-61
2024/01/22 02:27:35;;;;;;;7.93;3.80;;;9.20;99.90;;;;;;5142851;27;20034;-60
2024/01/22 02:30:01;;;;;;;10.70;4.13;;;9.20;99.90;;;;;;5137365;27;20402;-60
2024/01/22 02:32:27;;;;;;;13.07;4.45;;;9.20;99.90;;;;;;5148993;27;20039;-59
2024/01/22 02:34:52;;;;;;;6.95;4.07;;;9.30;99.90;;;;;;5143312;27;20047;-60
2024/01/22 02:37:18;;;;;;;6.13;3.50;;;9.20;99.90;;;;;;5143342;27;20034;-60
2024/01/22 02:39:44;;;;;;;9.15;3.67;;;9.20;99.90;;;;;;5118976;27;20047;-61
2024/01/22 02:42:10;;;;;;;6.65;3.58;;;9.30;99.90;;;;;;5144378;27;20041;-61
2024/01/22 02:44:35;;;;;;;7.97;3.45;;;9.40;99.90;;;;;;5142284;27;20126;-63
2024/01/22 02:47:02;;;;;;;5.97;3.90;;;9.50;99.90;;;;;;5142956;27;20042;-62
2024/01/22 02:49:28;;;;;;;5.05;3.60;;;9.50;99.90;;;;;;5135067;27;20035;-61
2024/01/22 02:51:54;;;;;;;7.00;3.35;;;9.60;99.90;;;;;;5146294;27;20159;-61
2024/01/22 02:54:20;;;;;;;7.93;3.20;;;9.60;99.90;;;;;;5144280;27;20126;-61
2024/01/22 02:56:46;;;;;;;5.63;3.50;;;9.60;99.90;;;;;;5137876;27;20038;-61
2024/01/22 02:59:11;;;;;;;6.38;3.60;;;9.60;99.90;;;;;;5145763;27;20042;-61
2024/01/22 03:01:37;;;;;;;7.22;3.15;;;9.60;99.90;;;;;;5145819;27;20039;-60
2024/01/22 03:04:03;;;;;;;8.35;3.95;;;9.60;99.90;;;;;;5134177;27;20123;-61
2024/01/22 03:06:29;;;;;;;10.48;3.00;;;9.60;99.90;;;;;;5134328;27;20034;-61
2024/01/22 03:08:56;;;;;;;4.25;2.92;;;9.60;99.90;;;;;;5137273;27;20031;-61
2024/01/22 03:11:22;;;;;;;7.20;2.97;;;9.60;99.90;;;;;;5137237;27;20385;-61
2024/01/22 03:13:48;;;;;;;8.15;4.68;;;9.50;99.90;;;;;;5135301;27;20038;-61
2024/01/22 03:16:14;;;;;;;6.22;2.83;;;9.50;99.90;;;;;;5145698;27;20126;-61
2024/01/22 03:18:40;;;;;;;4.75;3.10;;;9.60;99.90;;;;;;5135672;27;20074;-61
2024/01/22 03:21:05;;;;;;;6.45;3.30;;;9.60;99.90;;;;;;5142600;27;20436;-61
2024/01/22 03:23:31;;;;;;;7.85;3.03;;;9.60;99.90;;;;;;5138039;27;20402;-61
2024/01/22 03:25:57;;;;;;;4.95;3.22;;;9.60;99.90;;;;;;5141127;27;20039;-61
2024/01/22 03:28:23;;;;;;;5.40;3.08;;;9.50;99.90;;;;;;5142171;27;20358;-61
2024/01/22 03:30:49;;;;;;;6.30;3.50;;;9.50;99.90;;;;;;5141934;27;20042;-62
2024/01/22 03:33:15;;;;;;;5.63;3.17;;;9.50;99.90;;;;;;5118652;27;20043;-61
2024/01/22 03:35:40;;;;;;;6.07;3.42;;;9.50;99.90;;;;;;5145924;27;20155;-61
2024/01/22 03:38:06;;;;;;;9.20;3.47;;;9.60;99.90;;;;;;5140557;27;20387;-61
2024/01/22 03:40:32;;;;;;;7.95;3.17;;;9.60;99.90;;;;;;5140936;27;20027;-61
2024/01/22 03:42:58;;;;;;;9.43;3.75;;;9.50;99.90;;;;;;5144771;27;20022;-61
2024/01/22 03:45:23;;;;;;;8.10;3.35;;;9.50;99.90;;;;;;5124389;27;20401;-61
2024/01/22 03:47:49;;;;;;;5.38;3.38;;;9.60;99.90;;;;;;5146164;27;20058;-61
2024/01/22 03:50:15;;;;;;;4.10;2.97;;;9.60;99.90;;;;;;5139549;27;20049;-61
2024/01/22 03:52:40;;;;;;;4.95;3.20;;;9.60;99.90;;;;;;5144873;27;20042;-64
2024/01/22 03:55:07;;;;;;;5.50;4.25;;;9.60;99.90;;;;;;5138548;27;20487;-62
2024/01/22 03:57:33;;;;;;;5.93;2.88;;;9.50;99.90;;;;;;5142162;27;20027;-60
2024/01/22 03:59:59;;;;;;;4.97;2.95;;;9.70;99.90;;;;;;5127897;27;20579;-61
2024/01/22 04:02:24;;;;;;;4.53;2.72;;;9.60;99.90;;;;;;5145550;27;20027;-61
2024/01/22 04:04:52;;;;;;;5.03;2.60;;;9.60;99.90;;;;;;5141452;27;20031;-61
2024/01/22 04:07:17;;;;;;;4.63;2.75;;;9.70;99.90;;;;;;5144693;27;20053;-61
2024/01/22 04:09:43;;;;;;;4.25;2.92;;;9.70;99.90;;;;;;5133732;27;20376;-60
2024/01/22 04:12:09;;;;;;;7.72;2.95;;;9.70;99.90;;;;;;5137270;27;20071;-61
2024/01/22 04:14:34;;;;;;;5.72;2.90;;;9.60;99.90;;;;;;5137508;27;20131;-60
2024/01/22 04:17:00;;;;;;;4.57;2.60;;;9.70;99.90;;;;;;5144791;27;20080;-60
2024/01/22 04:19:26;;;;;;;4.35;2.40;;;9.60;99.90;;;;;;5142395;27;20081;-60
2024/01/22 04:21:52;;;;;;;3.35;2.47;;;9.70;99.90;;;;;;5137388;27;20034;-61
2024/01/22 04:24:17;;;;;;;5.70;3.42;;;9.70;99.90;;;;;;5141243;27;20464;-61
2024/01/22 04:26:43;;;;;;;3.25;2.38;;;9.80;99.90;;;;;;5135382;27;20035;-61
2024/01/22 04:29:09;;;;;;;4.57;2.40;;;9.80;99.90;;;;;;5134566;27;20654;-61
2024/01/22 04:31:36;;;;;;;3.63;2.67;;;9.80;99.90;;;;;;5141716;27;20069;-61
2024/01/22 04:34:02;;;;;;;5.80;2.78;;;9.90;99.90;;;;;;5144740;27;20043;-60
2024/01/22 04:36:28;;;;;;;4.63;2.67;;;9.80;99.90;;;;;;5144488;27;20163;-60
2024/01/22 04:38:53;;;;;;;4.32;2.80;;;9.90;99.90;;;;;;5145293;27;20659;-61
2024/01/22 04:41:19;;;;;;;6.03;2.50;;;9.90;99.90;;;;;;5132905;27;20027;-60
2024/01/22 04:43:45;;;;;;;3.97;2.75;;;9.90;99.90;;;;;;5140721;27;20218;-60
2024/01/22 04:46:10;;;;;;;5.00;2.55;;;10.00;99.90;;;;;;5141102;27;20038;-60
2024/01/22 04:48:37;;;;;;;7.00;3.00;;;10.00;99.90;;;;;;5137521;27;20038;-60
2024/01/22 04:51:03;;;;;;;4.00;2.45;;;10.00;99.90;;;;;;5137871;27;20050;-60
2024/01/22 04:53:29;;;;;;;3.55;2.85;;;9.90;99.90;;;;;;5139347;27;20090;-60
2024/01/22 04:55:55;;;;;;;3.67;2.53;;;10.00;99.90;;;;;;5140691;27;20125;-60
2024/01/22 04:58:20;;;;;;;4.25;2.65;;;9.90;99.90;;;;;;5140024;27;20227;-60
2024/01/22 05:00:46;;;;;;;4.57;2.75;;;9.90;99.90;;;;;;5125658;27;20046;-60
2024/01/22 05:03:12;;;;;;;4.38;2.80;;;9.90;99.90;;;;;;5141691;27;20035;-60
2024/01/22 05:05:38;;;;;;;3.83;2.50;;;10.00;99.90;;;;;;5133766;27;20070;-60
2024/01/22 05:08:04;;;;;;;4.40;2.65;;;10.10;99.90;;;;;;5144393;27;20041;-60
2024/01/22 05:10:30;;;;;;;4.32;2.80;;;10.00;99.90;;;;;;5132850;27;20394;-60
2024/01/22 05:12:55;;;;;;;3.97;2.40;;;10.00;99.90;;;;;;5132365;27;20043;-60
2024/01/22 05:15:21;;;;;;;4.30;2.53;;;10.10;99.90;;;;;;5141925;27;20043;-60
2024/01/22 05:17:47;;;;;;;7.07;2.78;;;10.10;99.90;;;;;;5113773;27;20130;-60
2024/01/22 05:20:13;;;;;;;3.83;2.15;;;10.20;99.90;;;;;;5139992;27;20042;-59
2024/01/22 05:22:39;;;;;;;5.10;2.47;;;10.30;99.90;;;;;;5145008;27;20125;-60
2024/01/22 05:25:05;;;;;;;2.67;2.30;;;10.20;99.90;;;;;;5145350;27;20065;-60
2024/01/22 05:27:30;;;;;;;9.68;2.60;;;10.30;99.90;;;;;;5138628;27;20127;-61
2024/01/22 05:29:56;;;;;;;4.68;2.40;;;10.20;99.90;;;;;;5136095;27;20117;-60
2024/01/22 05:32:23;;;;;;;2.97;2.33;;;10.30;99.90;;;;;;5140785;27;20428;-59
2024/01/22 05:34:48;;;;;;;2.60;2.15;;;10.40;99.90;;;;;;5137882;27;20546;-60
2024/01/22 05:37:14;;;;;;;2.85;1.88;;;10.50;99.90;;;;;;5134692;27;20087;-60
2024/01/22 05:39:40;;;;;;;3.22;1.90;;;10.50;99.90;;;;;;5142353;27;20494;-60
2024/01/22 05:42:06;;;;;;;4.13;2.20;;;10.70;99.90;;;;;;5140671;27;20210;-60
2024/01/22 05:44:32;;;;;;;2.38;1.70;;;10.80;99.90;;;;;;5143960;27;20031;-61
2024/01/22 05:46:57;;;;;;;3.97;1.60;;;10.70;99.90;;;;;;5134524;27;20031;-60
2024/01/22 05:49:23;;;;;;;3.40;1.50;;;10.80;99.90;;;;;;5134910;27;20039;-60
2024/01/22 05:51:49;;;;;;;3.80;1.65;;;10.70;99.90;;;;;;5130759;27;20081;-60
2024/01/22 05:54:15;;;;;;;3.63;1.38;;;10.90;99.90;;;;;;5139815;27;20130;-59
2024/01/22 05:56:41;;;;;;;6.63;1.70;;;10.90;99.90;;;;;;5142148;27;20673;-60
2024/01/22 05:59:08;;;;;;;3.25;1.60;;;10.90;99.90;;;;;;5137765;27;20521;-60
2024/01/22 06:01:33;;;;;;;4.40;1.50;;;11.00;99.90;;;;;;5140258;27;20095;-60
2024/01/22 06:04:00;;;;;;;4.50;1.77;;;11.10;99.90;;;;;;5140017;27;20039;-60
2024/01/22 06:06:25;;;;;;;5.15;1.80;;;11.00;99.90;;;;;;5138602;27;20038;-60
2024/01/22 06:08:51;;;;;;;6.43;1.60;;;11.10;99.90;;;;;;5142003;27;20039;-59
2024/01/22 06:11:18;;;;;;;4.50;1.80;;;11.10;99.90;;;;;;5137849;27;20042;-60
2024/01/22 06:13:44;;;;;;;6.55;1.95;;;11.00;99.90;;;;;;5139224;27;20046;-60
2024/01/22 06:16:13;;;;;;;4.53;1.50;;;11.00;99.90;;;;;;5141664;27;20035;-60
2024/01/22 06:18:41;;;;;;;3.55;1.27;;;11.20;99.90;;;;;;5140521;27;20567;-60
2024/01/22 06:21:08;;;;;;;2.65;1.40;;;11.20;99.90;;;;;;5136961;27;20413;-60
2024/01/22 06:23:34;;;;;;;5.32;1.92;;;11.10;99.90;;;;;;5139002;27;20062;-60
2024/01/22 06:26:01;;;;;;;5.28;1.50;;;11.20;99.90;;;;;;5138207;27;20179;-60
2024/01/22 06:28:27;;;;;;;6.05;1.48;;;11.30;99.90;;;;;;5140856;27;20111;-60
2024/01/22 06:30:53;;;;;;;6.57;1.70;;;11.20;99.90;;;;;;5140579;27;20019;-60
2024/01/22 06:33:20;;;;;;;7.13;2.00;;;11.20;99.90;;;;;;5138772;27;20048;-60
2024/01/22 06:35:46;;;;;;;8.75;1.48;;;11.20;99.90;;;;;;5139416;27;20460;-60
2024/01/22 06:38:13;;;;;;;9.85;2.00;;;11.10;99.90;;;;;;5140568;27;20038;-60
2024/01/22 06:40:39;;;;;;;8.98;2.15;;;11.10;99.90;;;;;;5139736;27;20824;-60
2024/01/22 06:43:05;;;;;;;6.95;2.13;;;11.20;99.90;;;;;;5122751;27;20125;-60
2024/01/22 06:45:31;;;;;;;10.43;2.78;;;11.20;99.90;;;;;;5141358;27;20039;-60
2024/01/22 06:47:57;;;;;;;9.02;1.90;;;11.00;99.90;;;;;;5139159;27;20116;-60
2024/01/22 06:50:23;;;;;;;10.27;2.22;;;11.10;99.90;;;;;;5139482;27;20063;-61
2024/01/22 06:52:49;;;;;;;10.20;2.67;;;11.00;99.90;;;;;;5141157;27;20062;-60
2024/01/22 06:55:16;;;;;;;9.77;2.47;;;11.00;99.90;;;;;;5140754;27;20142;-60
2024/01/22 06:57:41;;;;;;;10.48;2.13;;;11.00;99.90;;;;;;5140219;27;20473;-60
2024/01/22 07:00:08;;;;;;;11.02;2.53;;;11.10;99.90;;;;;;5140358;27;20041;-61
2024/01/22 07:02:35;;;;;;;17.45;3.75;;;11.00;99.90;;;;;;5138524;27;20122;-61
2024/01/22 07:05:01;;;;;;;15.52;2.92;;;11.00;99.90;;;;;;5140390;27;20114;-60
2024/01/22 07:07:27;;;;;;;10.25;2.40;;;11.10;99.90;;;;;;5141002;27;20030;-60
2024/01/22 07:09:53;;;;;;;16.73;3.67;;;11.00;99.90;;;;;;5139108;27;20035;-60
2024/01/22 07:12:20;;;;;;;21.73;3.88;;;11.10;99.90;;;;;;5140673;27;20087;-60
2024/01/22 07:14:46;;;;;;;12.95;3.28;;;11.10;99.90;;;;;;5138267;27;20141;-60
2024/01/22 07:17:15;;;;;;;25.05;4.90;;;10.90;99.90;;;;;;5139280;27;20041;-60
2024/01/22 07:19:41;;;;;;;24.63;3.50;;;11.00;99.90;;;;;;5143242;27;20053;-61
2024/01/22 07:22:07;;;;;;;17.75;3.38;;;11.00;99.90;;;;;;5140302;27;20526;-60
2024/01/22 07:24:33;;;;;;;20.83;4.72;;;11.10;99.90;;;;;;5142287;27;20049;-61
2024/01/22 07:26:58;;;;;;;20.15;4.70;;;11.00;99.90;;;;;;5140402;27;20038;-60
2024/01/22 07:29:24;;;;;;;33.38;5.45;;;11.00;99.90;;;;;;5142218;27;20031;-60
2024/01/22 07:31:50;;;;;;;30.95;5.85;;;11.00;99.90;;;;;;5141822;27;20054;-60
2024/01/22 07:34:16;;;;;;;20.65;4.40;;;11.10;99.90;;;;;;5143016;27;20038;-60
2024/01/22 07:36:42;;;;;;;29.80;5.40;;;11.00;99.90;;;;;;5141239;27;20053;-60
2024/01/22 07:39:08;;;;;;;25.52;5.40;;;11.00;99.90;;;;;;5143495;27;20083;-60
2024/01/22 07:41:35;;;;;;;28.50;6.22;;;11.10;99.90;;;;;;5143036;27;20058;-60
2024/01/22 07:44:01;;;;;;;34.55;5.70;;;11.10;99.90;;;;;;5141619;27;20038;-61
2024/01/22 07:46:28;;;;;;;28.85;5.50;;;11.10;99.90;;;;;;5144150;27;20056;-61
2024/01/22 07:48:54;;;;;;;30.40;5.60;;;11.10;99.90;;;;;;5140122;27;20590;-61
2024/01/22 07:51:20;;;;;;;33.80;6.18;;;11.20;99.90;;;;;;5130562;27;20121;-59
2024/01/22 07:53:46;;;;;;;35.20;6.38;;;11.00;99.90;;;;;;5139730;27;20466;-61
2024/01/22 07:56:12;;;;;;;32.78;6.38;;;11.10;99.90;;;;;;5134600;27;20038;-61
2024/01/22 07:58:39;;;;;;;39.47;6.47;;;11.00;99.90;;;;;;5122030;27;20096;-62
2024/01/22 08:01:06;;;;;;;36.55;6.18;;;10.90;99.90;;;;;;5141717;27;20035;-61
2024/01/22 08:03:31;;;;;;;44.97;5.85;;;10.90;99.90;;;;;;5144129;27;20037;-61
2024/01/22 08:05:58;;;;;;;42.55;6.63;;;10.70;99.90;;;;;;5141372;27;20030;-60
2024/01/22 08:08:33;;;;;;;35.10;6.57;;;10.70;99.90;;;;;;5140108;27;20038;-61
2024/01/22 08:10:58;;;;;;;37.45;6.47;;;10.50;99.90;;;;;;5140209;27;20095;-60
2024/01/22 08:13:24;;;;;;;33.70;6.38;;;10.50;99.90;;;;;;5142121;27;20452;-61
2024/01/22 08:15:50;;;;;;;34.55;5.82;;;10.40;99.90;;;;;;5141058;27;20113;-61
2024/01/22 08:18:16;;;;;;;25.98;4.63;;;10.20;99.90;;;;;;5140549;27;20069;-61
2024/01/22 08:20:42;;;;;;;31.88;5.53;;;10.20;99.90;;;;;;5140700;27;20113;-60
2024/01/22 08:23:09;;;;;;;35.40;5.78;;;10.30;99.90;;;;;;5141458;27;20023;-60
2024/01/22 08:25:36;;;;;;;37.45;6.47;;;10.20;99.90;;;;;;5140557;27;20494;-60
2024/01/22 08:28:02;;;;;;;30.45;5.78;;;10.20;99.90;;;;;;5140675;27;20074;-60
2024/01/22 08:30:29;;;;;;;24.23;5.47;;;10.20;99.90;;;;;;5142101;27;20039;-61
2024/01/22 08:32:55;;;;;;;28.58;5.15;;;10.20;99.90;;;;;;5142179;27;20450;-60
2024/01/22 08:35:21;;;;;;;29.58;5.78;;;10.20;99.90;;;;;;5140185;27;20126;-59
2024/01/22 08:37:52;;;;;;;32.83;5.65;;;10.20;99.90;;;;;;5142280;27;20045;-63
2024/01/22 08:40:21;;;;;;;31.98;6.60;;;10.20;99.90;;;;;;5141645;27;20121;-60
2024/01/22 08:42:55;;;;;;;28.85;6.40;;;10.20;99.90;;;;;;5142249;27;20037;-61
2024/01/22 08:45:21;;;;;;;33.35;7.50;;;10.10;99.90;;;;;;5139980;27;20039;-60
2024/01/22 08:47:49;;;;;;;32.40;5.85;;;10.20;99.90;;;;;;5141618;27;20066;-61
2024/01/22 08:50:17;;;;;;;33.33;6.72;;;10.10;99.90;;;;;;5140406;27;20070;-61
2024/01/22 08:52:45;;;;;;;42.88;7.20;;;10.10;99.90;;;;;;5140537;27;20134;-60
2024/01/22 08:55:11;;;;;;;40.65;7.68;;;10.10;99.90;;;;;;5141895;27;20119;-61
2024/01/22 08:57:37;;;;;;;40.55;6.38;;;10.00;99.90;;;;;;5139602;27;20050;-60
2024/01/22 09:00:10;;;;;;;37.05;6.55;;;10.00;99.90;;;;;;5139973;27;20544;-61
2024/01/22 09:02:45;;;;;;;40.15;6.80;;;10.30;99.90;;;;;;5141886;27;20050;-61
2024/01/22 09:05:12;;;;;;;47.35;8.13;;;10.00;99.90;;;;;;5120817;27;20035;-60
2024/01/22 09:07:38;;;;;;;51.03;8.90;;;10.00;99.90;;;;;;5142639;27;20486;-61
2024/01/22 09:10:07;;;;;;;60.45;10.38;;;10.20;99.90;;;;;;5142044;27;20038;-60
2024/01/22 09:12:33;;;;;;;62.92;9.98;;;10.00;99.90;;;;;;5139682;27;20054;-60
2024/01/22 09:15:01;;;;;;;57.90;10.07;;;10.20;99.90;;;;;;5141601;27;20691;-60
2024/01/22 09:17:27;;;;;;;55.50;8.85;;;10.20;99.90;;;;;;5139911;27;20046;-60
2024/01/22 09:19:52;;;;;;;58.72;9.38;;;10.20;99.90;;;;;;5139052;27;20043;-60
2024/01/22 09:22:21;;;;;;;66.60;10.48;;;10.30;99.90;;;;;;5141507;27;20038;-62
2024/01/22 09:24:47;;;;;;;54.33;9.25;;;10.30;99.90;;;;;;5140190;27;20108;-62
2024/01/22 09:27:13;;;;;;;58.75;11.07;;;10.30;99.90;;;;;;5138411;27;20043;-59
2024/01/22 09:29:41;;;;;;;56.05;10.52;;;10.20;99.90;;;;;;5140818;27;20082;-61
2024/01/22 09:32:08;;;;;;;54.60;10.07;;;10.30;99.90;;;;;;5139775;27;20045;-61
2024/01/22 09:34:34;;;;;;;63.67;9.85;;;10.30;99.90;;;;;;5142614;27;20050;-61
2024/01/22 09:36:59;;;;;;;55.95;9.60;;;10.30;99.90;;;;;;5140423;27;20486;-60
2024/01/22 09:39:25;;;;;;;52.92;10.10;;;10.30;99.90;;;;;;5140508;27;20074;-60
2024/01/22 09:41:51;;;;;;;45.90;8.68;;;10.30;99.90;;;;;;5139394;27;20228;-60
2024/01/22 09:44:18;;;;;;;47.92;8.85;;;10.40;99.90;;;;;;5139693;27;20038;-61
2024/01/22 09:46:47;;;;;;;51.55;9.55;;;10.50;99.90;;;;;;5088121;27;20054;-60
2024/01/22 09:49:13;;;;;;;46.72;7.28;;;10.40;99.90;;;;;;5140029;27;20404;-60
2024/01/22 09:51:42;;;;;;;49.00;9.80;;;10.50;99.90;;;;;;5139693;27;21411;-60
2024/01/22 09:54:10;;;;;;;;;;;10.50;99.90;;;;;;5138603;27;20043;-61
2024/01/22 09:56:37;;;;;;;53.13;8.95;;;10.60;99.90;;;;;;5141710;27;19949;-61
2024/01/22 09:59:16;;;;;;;43.85;8.13;;;10.60;99.90;;;;;;5134977;27;20038;-61
2024/01/22 10:01:42;;;;;;;52.03;9.18;;;10.70;99.90;;;;;;5136763;27;20038;-61
2024/01/22 10:04:11;;;;;;;44.92;9.00;;;10.70;99.90;;;;;;5139080;27;20026;-61
2024/01/22 10:06:38;;;;;;;35.08;7.50;;;10.60;99.90;;;;;;5139010;27;20435;-61
2024/01/22 10:09:04;;;;;;;66.78;9.40;;;10.70;99.90;;;;;;5138756;27;20046;-61
2024/01/22 10:11:32;;;;;;;34.60;6.88;;;10.80;99.90;;;;;;5130083;27;20054;-61
2024/01/22 10:13:57;;;;;;;36.08;7.00;;;10.80;99.90;;;;;;5138563;27;20047;-61
2024/01/22 10:16:28;;;;;;;41.50;7.00;;;10.80;99.90;;;;;;5138787;27;20042;-62
2024/01/22 10:19:06;;;;;;;37.03;7.50;;;10.90;99.90;;;;;;5139906;27;20047;-61
2024/01/22 10:21:33;;;;;;;39.58;7.88;;;11.00;99.90;;;;;;5139986;27;20073;-60
2024/01/22 10:24:01;;;;;;;39.83;7.97;;;11.00;99.90;;;;;;5138567;27;21324;-60
2024/01/22 10:26:30;;;;;;;43.25;7.18;;;11.00;99.90;;;;;;5140371;27;20400;-61
2024/01/22 10:29:13;;;;;;;28.63;6.85;;;11.00;99.90;;;;;;5132980;27;20162;-60
2024/01/22 10:32:00;;;;;;;35.78;6.97;;;11.10;99.90;;;;;;5139435;27;20794;-61
2024/01/22 10:34:30;;;;;;;26.35;5.72;;;11.00;99.90;;;;;;5137678;27;20726;-61
2024/01/22 10:37:10;;;;;;;26.27;6.03;;;11.10;99.90;;;;;;5138093;27;20494;-61
2024/01/22 10:39:37;;;;;;;27.85;5.50;;;11.00;99.90;;;;;;5137407;27;20039;-61
2024/01/22 10:42:07;;;;;;;31.58;6.30;;;11.00;99.90;;;;;;5139337;27;20604;-61
2024/01/22 10:44:36;;;;;;;32.78;7.40;;;11.00;99.90;;;;;;5137857;27;20031;-62
2024/01/22 10:47:04;;;;;;;29.27;6.13;;;11.00;99.90;;;;;;5137972;27;20401;-61
2024/01/22 10:49:31;;;;;;;32.72;5.75;;;11.00;99.90;;;;;;5138784;27;20042;-61
2024/01/22 10:52:04;;;;;;;31.50;6.13;;;11.00;99.90;;;;;;5140346;27;20118;-62
2024/01/22 10:54:30;;;;;;;30.67;6.00;;;11.10;99.90;;;;;;5142091;27;20137;-62
2024/01/22 10:57:15;;;;;;;32.55;5.65;;;11.00;99.90;;;;;;5144336;27;20046;-62
2024/01/22 10:59:48;;;;;;;27.02;5.43;;;11.10;99.90;;;;;;5141495;27;20042;-62
2024/01/22 11:02:23;;;;;;;29.70;4.80;;;11.10;99.90;;;;;;5140962;27;20490;-62
2024/01/22 11:05:15;;;;;;;26.27;5.60;;;11.20;99.90;;;;;;5142160;27;20130;-62
2024/01/22 11:07:41;;;;;;;34.20;6.25;;;11.40;99.90;;;;;;5137859;27;20443;-62
2024/01/22 11:10:11;;;;;;;26.73;5.53;;;11.40;99.90;;;;;;5143543;27;20066;-63
2024/01/22 11:12:49;;;;;;;31.98;6.15;;;11.40;99.90;;;;;;5142989;27;20043;-63
2024/01/22 11:15:15;;;;;;;26.00;6.13;;;11.50;99.90;;;;;;5141606;27;20031;-62
2024/01/22 11:17:41;;;;;;;37.45;6.68;;;11.60;99.90;;;;;;5141975;27;20726;-63
2024/01/22 11:20:21;;;;;;;34.03;6.00;;;11.50;99.90;;;;;;5139487;27;20049;-63
2024/01/22 11:23:00;;;;;;;28.48;6.68;;;11.60;99.90;;;;;;5142654;27;20043;-63
2024/01/22 11:25:26;;;;;;;28.60;6.70;;;11.60;99.90;;;;;;5141633;27;20070;-64
2024/01/22 11:28:03;;;;;;;22.88;5.32;;;11.60;99.90;;;;;;5142400;27;20486;-63
2024/01/22 11:30:33;;;;;;;26.95;4.60;;;11.60;99.90;;;;;;5141979;27;20504;-63
2024/01/22 11:32:58;;;;;;;29.52;5.22;;;11.50;99.90;;;;;;5143093;27;20083;-64
2024/01/22 11:35:37;;;;;;;24.17;5.35;;;11.50;99.90;;;;;;5143885;27;20038;-66
2024/01/22 11:38:09;;;;;;;29.95;5.40;;;11.50;99.90;;;;;;5141050;27;20039;-64
2024/01/22 11:40:55;;;;;;;24.35;5.25;;;11.50;99.90;;;;;;5122500;27;20049;-64
2024/01/22 11:43:24;;;;;;;23.98;5.15;;;11.50;99.90;;;;;;5141355;27;20106;-64
2024/01/22 11:45:53;;;;;;;24.33;4.68;;;11.60;99.90;;;;;;5143666;27;20038;-65
2024/01/22 11:48:23;;;;;;;27.83;4.78;;;11.70;99.90;;;;;;5140117;27;20534;-64
2024/01/22 11:51:02;;;;;;;31.67;5.57;;;11.70;99.90;;;;;;5141330;27;20038;-65
2024/01/22 11:53:28;;;;;;;22.30;4.90;;;11.70;99.90;;;;;;5125930;27;20046;-64
2024/01/22 11:56:05;;;;;;;24.08;4.18;;;11.80;99.90;;;;;;5135267;27;20363;-64
2024/01/22 11:58:32;;;;;;;24.40;4.75;;;11.80;99.90;;;;;;5140825;27;20042;-64
2024/01/22 12:01:00;;;;;;;26.70;5.70;;;11.80;99.90;;;;;;5141955;27;20050;-63
2024/01/22 12:03:26;;;;;;;24.08;5.00;;;11.80;99.90;;;;;;5122747;27;20039;-64
2024/01/22 12:06:04;;;;;;;25.38;5.00;;;11.90;99.90;;;;;;5141560;27;20444;-64
2024/01/22 12:08:31;;;;;;;20.90;4.45;;;11.80;99.90;;;;;;5143383;27;20062;-64
2024/01/22 12:11:24;;;;;;;29.10;4.78;;;11.80;99.90;;;;;;5143607;27;20035;-63
2024/01/22 12:13:49;;;;;;;23.92;5.13;;;11.80;99.90;;;;;;5137455;27;20043;-63
2024/01/22 12:16:17;;;;;;;26.42;5.15;;;11.90;99.90;;;;;;5142368;27;20091;-64
2024/01/22 12:18:47;;;;;;;18.27;4.88;;;11.80;99.90;;;;;;5138494;27;20130;-63
2024/01/22 12:21:14;;;;;;;23.02;4.25;;;11.70;99.90;;;;;;5142443;27;20467;-62
2024/01/22 12:23:40;;;;;;;21.83;4.93;;;11.80;99.90;;;;;;5140352;27;20107;-63
2024/01/22 12:26:19;;;;;;;19.00;3.95;;;11.80;99.90;;;;;;5142298;27;20045;-63
2024/01/22 12:28:53;;;;;;;24.55;4.15;;;11.70;99.90;;;;;;5143766;27;20031;-62
2024/01/22 12:31:22;;;;;;;20.35;3.83;;;11.70;99.90;;;;;;5142292;27;20447;-62
2024/01/22 12:33:48;;;;;;;23.60;4.72;;;11.70;99.90;;;;;;5141267;27;20026;-63
2024/01/22 12:36:16;;;;;;;22.23;4.60;;;11.60;99.90;;;;;;5141086;27;20372;-62
2024/01/22 12:38:50;;;;;;;21.63;4.13;;;11.50;99.90;;;;;;5141677;27;20098;-62
2024/01/22 12:41:16;;;;;;;21.52;4.63;;;11.50;99.90;;;;;;5141112;27;20557;-62
2024/01/22 12:43:42;;;;;;;19.73;4.32;;;11.40;99.90;;;;;;5139653;27;20031;-63
2024/01/22 12:46:10;;;;;;;15.65;4.50;;;11.30;99.90;;;;;;5139812;27;20041;-62